createdAt,value
2023-03-26T00:00:06.083Z,7.18
2023-03-26T00:03:01.750Z,7.20
2023-03-26T00:05:32.460Z,7.21
2023-03-26T00:08:01.850Z,7.20
2023-03-26T00:10:31.235Z,7.21
2023-03-26T00:13:00.221Z,7.21
2023-03-26T00:15:29.990Z,7.21
2023-03-26T00:18:01.232Z,7.19
2023-03-26T00:20:34.935Z,7.17
2023-03-26T00:23:04.279Z,7.17
2023-03-26T00:25:35.262Z,7.16
2023-03-26T00:28:04.644Z,7.12
2023-03-26T00:30:42.086Z,7.10
2023-03-26T00:33:12.668Z,7.09
2023-03-26T00:35:43.713Z,7.18
2023-03-26T00:38:17.292Z,7.20
2023-03-26T00:40:48.518Z,7.22
2023-03-26T00:43:20.119Z,7.20
2023-03-26T00:45:54.785Z,7.18
2023-03-26T00:48:34.329Z,7.18
2023-03-26T00:51:12.911Z,7.22
2023-03-26T00:53:43.150Z,7.29
2023-03-26T00:56:13.797Z,7.35
2023-03-26T00:58:46.500Z,7.40
2023-03-26T01:01:21.489Z,7.43
2023-03-26T01:04:08.909Z,7.45
2023-03-26T01:06:42.548Z,7.48
2023-03-26T01:09:19.261Z,7.45
2023-03-26T01:11:51.867Z,7.38
2023-03-26T01:14:27.559Z,7.36
2023-03-26T01:17:03.826Z,7.35
2023-03-26T01:20:09.073Z,7.33
2023-03-26T01:22:42.110Z,7.27
2023-03-26T01:25:12.951Z,7.23
2023-03-26T01:27:51.746Z,7.20
2023-03-26T01:30:42.482Z,7.21
2023-03-26T01:33:35.205Z,7.19
2023-03-26T01:36:18.256Z,7.18
2023-03-26T01:39:02.129Z,7.12
2023-03-26T01:41:48.416Z,7.12
2023-03-26T01:44:43.846Z,7.13
2023-03-26T01:47:14.618Z,7.11
2023-03-26T01:49:45.689Z,7.10
2023-03-26T01:52:22.835Z,7.11
2023-03-26T01:54:55.092Z,7.12
2023-03-26T01:57:43.125Z,7.13
2023-03-26T02:00:46.425Z,7.15
2023-03-26T02:03:28.899Z,7.18
2023-03-26T02:06:06.573Z,7.18
2023-03-26T02:09:04.757Z,7.17
2023-03-26T02:11:37.617Z,7.14
2023-03-26T02:14:09.055Z,7.13
2023-03-26T02:16:38.123Z,7.08
2023-03-26T02:19:16.427Z,7.06
2023-03-26T02:21:47.363Z,7.02
2023-03-26T02:24:19.915Z,7.00
2023-03-26T02:26:50.694Z,6.98
2023-03-26T02:29:21.630Z,6.97
2023-03-26T02:31:54.807Z,6.97
2023-03-26T02:34:27.355Z,6.95
2023-03-26T02:36:59.293Z,6.95
2023-03-26T02:39:29.625Z,6.94
2023-03-26T02:42:03.755Z,6.94
2023-03-26T02:44:40.184Z,6.93
2023-03-26T02:47:16.111Z,6.91
2023-03-26T02:49:48.767Z,6.89
2023-03-26T02:52:38.941Z,6.88
2023-03-26T02:55:10.218Z,6.87
2023-03-26T02:57:43.498Z,6.88
2023-03-26T03:00:26.490Z,6.88
2023-03-26T03:03:27.980Z,6.88
2023-03-26T03:06:27.114Z,6.92
2023-03-26T03:09:03.499Z,6.94
2023-03-26T03:11:41.238Z,6.95
2023-03-26T03:14:10.940Z,6.97
2023-03-26T03:16:42.738Z,6.97
2023-03-26T03:19:14.663Z,6.93
2023-03-26T03:21:45.099Z,6.84
2023-03-26T03:24:18.886Z,6.75
2023-03-26T03:26:50.892Z,6.65
2023-03-26T03:29:39.794Z,6.58
2023-03-26T03:32:46.825Z,6.46
2023-03-26T03:35:23.382Z,6.33
2023-03-26T03:38:02.361Z,6.17
2023-03-26T03:40:38.038Z,6.01
2023-03-26T03:43:09.055Z,5.84
2023-03-26T03:45:46.042Z,5.72
2023-03-26T03:48:39.396Z,5.61
2023-03-26T03:51:11.071Z,5.52
2023-03-26T03:54:10.802Z,5.41
2023-03-26T03:56:50.820Z,5.33
2023-03-26T03:59:34.618Z,5.26
2023-03-26T04:02:06.199Z,5.19
2023-03-26T04:04:42.545Z,5.12
2023-03-26T04:07:14.318Z,5.09
2023-03-26T04:10:09.656Z,5.06
2023-03-26T04:13:08.181Z,4.99
2023-03-26T04:15:57.585Z,4.92
2023-03-26T04:18:28.048Z,4.85
2023-03-26T04:21:03.112Z,4.80
2023-03-26T04:23:32.753Z,4.74
2023-03-26T04:26:13.822Z,4.69
2023-03-26T04:29:07.085Z,4.60
2023-03-26T04:31:38.831Z,4.54
2023-03-26T04:34:14.050Z,4.51
2023-03-26T04:36:55.000Z,4.47
2023-03-26T04:39:30.912Z,4.45
2023-03-26T04:42:23.005Z,4.42
2023-03-26T04:45:23.013Z,4.35
2023-03-26T04:47:58.991Z,4.31
2023-03-26T04:50:28.130Z,4.34
2023-03-26T04:52:58.568Z,4.33
2023-03-26T04:56:37.607Z,4.30
2023-03-26T04:59:35.982Z,4.34
2023-03-26T05:02:13.508Z,4.41
2023-03-26T05:04:52.664Z,4.59
2023-03-26T05:07:24.250Z,4.83
2023-03-26T05:09:58.016Z,5.16
2023-03-26T05:12:36.928Z,5.46
2023-03-26T05:15:12.583Z,5.81
2023-03-26T05:17:57.908Z,6.28
2023-03-26T05:20:47.433Z,6.75
2023-03-26T05:23:17.353Z,7.14
2023-03-26T05:25:52.521Z,7.42
2023-03-26T05:28:24.997Z,7.63
2023-03-26T05:31:01.334Z,7.98
2023-03-26T05:33:33.038Z,8.22
2023-03-26T05:36:13.938Z,8.56
2023-03-26T05:38:49.895Z,8.75
2023-03-26T05:41:53.837Z,9.15
2023-03-26T05:44:26.079Z,9.37
2023-03-26T05:46:54.971Z,9.47
2023-03-26T05:49:26.123Z,9.63
2023-03-26T05:51:56.068Z,9.79
2023-03-26T05:54:47.973Z,9.98
2023-03-26T05:57:48.700Z,9.71
2023-03-26T06:00:39.107Z,9.49
2023-03-26T06:03:13.182Z,9.17
2023-03-26T06:06:17.140Z,8.88
2023-03-26T06:09:02.087Z,8.60
2023-03-26T06:11:33.089Z,8.44
2023-03-26T06:14:03.443Z,8.21
2023-03-26T06:16:34.003Z,8.09
2023-03-26T06:19:18.676Z,8.33
2023-03-26T06:21:53.720Z,8.68
2023-03-26T06:24:26.462Z,9.09
2023-03-26T06:27:27.698Z,9.53
2023-03-26T06:30:16.777Z,10.01
2023-03-26T06:33:08.545Z,10.49
2023-03-26T06:35:45.826Z,11.06
2023-03-26T06:38:15.501Z,11.31
2023-03-26T06:40:44.363Z,11.37
2023-03-26T06:43:42.343Z,11.31
2023-03-26T06:46:36.750Z,11.29
2023-03-26T06:49:18.097Z,11.14
2023-03-26T06:52:05.722Z,10.71
2023-03-26T06:55:06.134Z,10.82
2023-03-26T06:58:00.632Z,10.99
2023-03-26T07:00:47.198Z,11.02
2023-03-26T07:03:39.060Z,11.16
2023-03-26T07:06:26.212Z,11.57
2023-03-26T07:09:13.402Z,12.05
2023-03-26T07:12:00.681Z,12.35
2023-03-26T07:14:49.486Z,12.27
2023-03-26T07:17:41.570Z,12.61
2023-03-26T07:20:17.690Z,13.03
2023-03-26T07:22:46.977Z,13.22
2023-03-26T07:25:19.886Z,13.13
2023-03-26T07:28:28.579Z,13.49
2023-03-26T07:31:39.019Z,13.50
2023-03-26T07:34:38.328Z,13.41
2023-03-26T07:37:46.397Z,13.41
2023-03-26T07:40:29.210Z,13.62
2023-03-26T07:43:31.284Z,13.88
2023-03-26T07:46:26.286Z,14.21
2023-03-26T07:49:14.868Z,14.43
2023-03-26T07:52:19.578Z,14.58
2023-03-26T07:55:06.073Z,14.41
2023-03-26T07:57:59.637Z,14.36
2023-03-26T08:00:52.679Z,14.46
2023-03-26T08:03:47.068Z,14.80
2023-03-26T08:07:00.076Z,14.81
2023-03-26T08:10:19.274Z,14.55
2023-03-26T08:13:23.240Z,14.22
2023-03-26T08:16:10.576Z,14.16
2023-03-26T08:19:01.928Z,14.26
2023-03-26T08:21:43.385Z,14.82
2023-03-26T08:24:27.633Z,14.57
2023-03-26T08:27:21.849Z,14.10
2023-03-26T08:30:13.981Z,14.04
2023-03-26T08:32:49.549Z,13.97
2023-03-26T08:35:18.360Z,14.06
2023-03-26T08:37:47.732Z,14.65
2023-03-26T08:40:32.172Z,15.05
2023-03-26T08:43:30.515Z,15.20
2023-03-26T08:46:27.970Z,14.93
2023-03-26T08:49:18.454Z,14.91
2023-03-26T08:51:56.101Z,14.74
2023-03-26T08:54:47.539Z,14.76
2023-03-26T08:58:02.893Z,14.92
2023-03-26T09:00:37.527Z,14.97
2023-03-26T09:03:31.245Z,15.44
2023-03-26T09:06:15.054Z,15.69
2023-03-26T09:08:53.751Z,15.04
2023-03-26T09:11:23.366Z,14.69
2023-03-26T09:14:01.586Z,14.57
2023-03-26T09:16:56.374Z,14.19
2023-03-26T09:19:43.496Z,14.20
2023-03-26T09:22:24.264Z,14.06
2023-03-26T09:25:18.000Z,14.26
2023-03-26T09:28:14.579Z,14.28
2023-03-26T09:30:58.723Z,14.51
2023-03-26T09:33:32.429Z,14.79
2023-03-26T09:36:22.202Z,14.78
2023-03-26T09:39:16.790Z,15.41
2023-03-26T09:42:24.814Z,15.52
2023-03-26T09:44:59.639Z,15.75
2023-03-26T09:47:28.246Z,16.39
2023-03-26T09:50:14.985Z,15.59
2023-03-26T09:52:50.656Z,14.81
2023-03-26T09:55:50.188Z,14.30
2023-03-26T09:58:33.835Z,14.66
2023-03-26T10:01:21.653Z,14.24
2023-03-26T10:04:06.840Z,14.62
2023-03-26T10:07:04.428Z,14.88
2023-03-26T10:10:09.347Z,14.95
2023-03-26T10:12:43.785Z,14.91
2023-03-26T10:15:32.213Z,14.98
2023-03-26T10:18:27.341Z,15.19
2023-03-26T10:21:04.008Z,14.99
2023-03-26T10:24:14.781Z,15.38
2023-03-26T10:27:08.689Z,16.44
2023-03-26T10:30:04.667Z,17.08
2023-03-26T10:33:13.169Z,17.89
2023-03-26T10:35:47.937Z,18.74
2023-03-26T10:38:46.505Z,18.99
2023-03-26T10:41:24.584Z,18.56
2023-03-26T10:44:37.190Z,17.78
2023-03-26T10:47:16.331Z,17.25
2023-03-26T10:50:05.120Z,17.82
2023-03-26T10:52:43.397Z,17.17
2023-03-26T10:55:24.299Z,16.64
2023-03-26T10:57:59.407Z,16.90
2023-03-26T11:00:30.220Z,17.50
2023-03-26T11:03:26.289Z,17.80
2023-03-26T11:06:17.353Z,17.52
2023-03-26T11:09:18.839Z,16.51
2023-03-26T11:12:25.423Z,15.82
2023-03-26T11:15:21.457Z,15.15
2023-03-26T11:17:53.033Z,14.91
2023-03-26T11:20:43.595Z,14.74
2023-03-26T11:23:27.165Z,15.22
2023-03-26T11:26:07.158Z,16.04
2023-03-26T11:29:03.639Z,16.81
2023-03-26T11:31:35.600Z,16.87
2023-03-26T11:34:11.541Z,16.30
2023-03-26T11:36:45.628Z,15.97
2023-03-26T11:39:26.111Z,15.61
2023-03-26T11:42:07.588Z,15.03
2023-03-26T11:44:56.773Z,15.03
2023-03-26T11:47:36.500Z,14.76
2023-03-26T11:50:08.504Z,14.97
2023-03-26T11:52:37.766Z,15.17
2023-03-26T11:55:06.964Z,15.41
2023-03-26T11:57:38.540Z,15.36
2023-03-26T12:00:27.796Z,15.73
2023-03-26T12:02:59.062Z,16.93
2023-03-26T12:05:36.922Z,18.11
2023-03-26T12:08:21.904Z,18.91
2023-03-26T12:11:01.760Z,18.77
2023-03-26T12:13:43.543Z,18.56
2023-03-26T12:16:18.176Z,17.87
2023-03-26T12:19:01.280Z,16.83
2023-03-26T12:21:46.570Z,16.45
2023-03-26T12:24:33.466Z,16.91
2023-03-26T12:27:21.458Z,17.67
2023-03-26T12:30:00.324Z,17.72
2023-03-26T12:32:45.269Z,17.78
2023-03-26T12:35:27.967Z,17.68
2023-03-26T12:38:24.686Z,17.76
2023-03-26T12:42:36.682Z,17.58
2023-03-26T12:44:45.937Z,17.08
2023-03-26T12:48:01.798Z,16.50
2023-03-26T12:50:17.170Z,17.07
2023-03-26T12:53:08.272Z,16.68
2023-03-26T12:55:44.731Z,16.48
2023-03-26T12:58:55.520Z,16.85
2023-03-26T13:01:33.741Z,17.48
2023-03-26T13:04:40.090Z,18.39
2023-03-26T13:07:27.507Z,19.20
2023-03-26T13:10:17.205Z,19.51
2023-03-26T13:13:11.681Z,19.32
2023-03-26T13:15:52.857Z,19.36
2023-03-26T13:18:43.963Z,19.99
2023-03-26T13:21:29.663Z,20.62
2023-03-26T13:24:18.204Z,20.87
2023-03-26T13:27:27.337Z,21.34
2023-03-26T13:30:50.535Z,21.80
2023-03-26T13:33:27.379Z,21.89
2023-03-26T13:36:22.485Z,21.94
2023-03-26T13:38:58.940Z,21.79
2023-03-26T13:41:32.256Z,21.64
2023-03-26T13:44:31.965Z,21.68
2023-03-26T13:47:10.888Z,21.07
2023-03-26T13:49:48.787Z,20.96
2023-03-26T13:52:26.606Z,21.20
2023-03-26T13:55:02.753Z,21.61
2023-03-26T13:57:37.681Z,21.98
2023-03-26T14:00:16.692Z,21.90
2023-03-26T14:02:57.109Z,22.35
2023-03-26T14:05:39.891Z,21.66
2023-03-26T14:08:23.020Z,21.41
2023-03-26T14:10:59.792Z,21.29
2023-03-26T14:13:57.770Z,20.93
2023-03-26T14:16:35.843Z,20.62
2023-03-26T14:19:41.452Z,20.60
2023-03-26T14:22:18.600Z,19.95
2023-03-26T14:24:52.922Z,19.33
2023-03-26T14:27:38.497Z,18.94
2023-03-26T14:30:16.401Z,18.31
2023-03-26T14:33:11.013Z,18.07
2023-03-26T14:36:04.554Z,17.88
2023-03-26T14:39:08.287Z,17.52
2023-03-26T14:41:56.524Z,17.20
2023-03-26T14:44:47.632Z,16.97
2023-03-26T14:47:22.249Z,16.66
2023-03-26T14:50:20.596Z,16.65
2023-03-26T14:52:51.856Z,16.68
2023-03-26T14:55:48.931Z,16.68
2023-03-26T14:58:17.514Z,16.71
2023-03-26T15:01:23.186Z,16.76
2023-03-26T15:04:13.349Z,16.98
2023-03-26T15:07:01.186Z,17.36
2023-03-26T15:10:07.505Z,17.84
2023-03-26T15:13:10.665Z,17.69
2023-03-26T15:16:07.109Z,17.47
2023-03-26T15:18:50.618Z,17.07
2023-03-26T15:21:56.060Z,16.99
2023-03-26T15:24:27.818Z,16.61
2023-03-26T15:27:15.543Z,16.26
2023-03-26T15:30:02.156Z,15.88
2023-03-26T15:33:01.387Z,15.57
2023-03-26T15:35:42.722Z,15.30
2023-03-26T15:38:35.793Z,15.13
2023-03-26T15:41:19.849Z,14.97
2023-03-26T15:44:24.506Z,14.86
2023-03-26T15:47:16.908Z,14.78
2023-03-26T15:50:27.378Z,14.69
2023-03-26T15:52:56.366Z,14.56
2023-03-26T15:55:53.112Z,14.44
2023-03-26T15:58:29.072Z,14.28
2023-03-26T16:01:08.718Z,14.19
2023-03-26T16:03:50.306Z,14.06
2023-03-26T16:06:28.422Z,13.93
2023-03-26T16:09:15.427Z,13.79
2023-03-26T16:12:11.959Z,13.63
2023-03-26T16:14:44.868Z,13.49
2023-03-26T16:17:20.844Z,13.38
2023-03-26T16:19:59.669Z,13.21
2023-03-26T16:23:00.057Z,13.00
2023-03-26T16:25:34.403Z,12.79
2023-03-26T16:28:26.809Z,12.58
2023-03-26T16:31:37.245Z,12.40
2023-03-26T16:34:06.064Z,12.19
2023-03-26T16:36:39.187Z,12.03
2023-03-26T16:39:10.741Z,11.90
2023-03-26T16:41:39.288Z,11.72
2023-03-26T16:44:39.113Z,11.51
2023-03-26T16:47:37.906Z,11.19
2023-03-26T16:50:29.419Z,10.86
2023-03-26T16:53:26.060Z,10.59
2023-03-26T16:56:02.850Z,10.32
2023-03-26T16:58:37.256Z,10.13
2023-03-26T17:01:28.439Z,10.02
2023-03-26T17:04:06.063Z,9.91
2023-03-26T17:06:45.970Z,9.84
2023-03-26T17:09:25.048Z,9.75
2023-03-26T17:12:30.386Z,9.62
2023-03-26T17:14:59.282Z,9.49
2023-03-26T17:17:40.105Z,9.40
2023-03-26T17:20:12.122Z,9.33
2023-03-26T17:22:47.342Z,9.25
2023-03-26T17:25:51.868Z,9.16
2023-03-26T17:29:03.977Z,9.03
2023-03-26T17:31:58.925Z,8.92
2023-03-26T17:34:40.564Z,8.79
2023-03-26T17:37:19.179Z,8.67
2023-03-26T17:39:47.871Z,8.57
2023-03-26T17:42:16.376Z,8.46
2023-03-26T17:44:47.357Z,8.42
2023-03-26T17:47:43.685Z,8.36
2023-03-26T17:50:24.707Z,8.33
2023-03-26T17:53:31.682Z,8.30
2023-03-26T17:56:16.954Z,8.22
2023-03-26T17:58:52.942Z,8.21
2023-03-26T18:01:35.048Z,8.27
2023-03-26T18:04:11.840Z,8.27
2023-03-26T18:06:55.734Z,8.27
2023-03-26T18:09:52.382Z,8.25
2023-03-26T18:12:44.609Z,8.23
2023-03-26T18:15:45.758Z,8.19
2023-03-26T18:18:37.017Z,8.05
2023-03-26T18:21:09.738Z,7.96
2023-03-26T18:23:44.689Z,7.91
2023-03-26T18:26:32.505Z,7.90
2023-03-26T18:29:24.768Z,7.89
2023-03-26T18:32:22.503Z,7.87
2023-03-26T18:34:59.094Z,7.86
2023-03-26T18:37:39.074Z,7.84
2023-03-26T18:40:14.738Z,7.80
2023-03-26T18:42:48.293Z,7.78
2023-03-26T18:45:27.229Z,7.76
2023-03-26T18:48:01.524Z,7.74
2023-03-26T18:50:37.094Z,7.72
2023-03-26T18:53:09.367Z,7.65
2023-03-26T18:55:39.941Z,7.55
2023-03-26T18:58:25.372Z,7.46
2023-03-26T19:01:08.563Z,7.42
2023-03-26T19:03:44.836Z,7.37
2023-03-26T19:06:15.424Z,7.29
2023-03-26T19:08:46.941Z,7.22
2023-03-26T19:11:17.880Z,7.17
2023-03-26T19:13:59.891Z,7.12
2023-03-26T19:16:34.220Z,7.08
2023-03-26T19:19:06.818Z,7.03
2023-03-26T19:21:36.808Z,6.96
2023-03-26T19:24:06.077Z,6.88
2023-03-26T19:26:36.786Z,6.80
2023-03-26T19:29:06.619Z,6.73
2023-03-26T19:31:42.726Z,6.66
2023-03-26T19:34:14.241Z,6.58
2023-03-26T19:37:01.257Z,6.51
2023-03-26T19:39:39.156Z,6.43
2023-03-26T19:42:14.715Z,6.35
2023-03-26T19:44:44.131Z,6.27
2023-03-26T19:47:39.099Z,6.21
2023-03-26T19:50:30.507Z,6.11
2023-03-26T19:53:24.611Z,5.96
2023-03-26T19:55:59.150Z,5.84
2023-03-26T19:58:28.312Z,5.78
2023-03-26T20:00:57.479Z,5.70
2023-03-26T20:03:29.998Z,5.61
2023-03-26T20:05:58.807Z,5.55
2023-03-26T20:08:27.473Z,5.56
2023-03-26T20:10:57.623Z,5.58
2023-03-26T20:13:26.691Z,5.55
2023-03-26T20:16:29.427Z,5.51
2023-03-26T20:19:02.627Z,5.48
2023-03-26T20:21:34.905Z,5.48
2023-03-26T20:24:11.015Z,5.46
2023-03-26T20:26:39.683Z,5.45
2023-03-26T20:29:08.427Z,5.43
2023-03-26T20:31:38.534Z,5.40
2023-03-26T20:34:18.911Z,5.34
2023-03-26T20:36:54.369Z,5.29
2023-03-26T20:39:24.924Z,5.22
2023-03-26T20:41:55.191Z,5.16
2023-03-26T20:44:27.039Z,5.06
2023-03-26T20:46:57.558Z,4.94
2023-03-26T20:49:29.583Z,4.81
2023-03-26T20:51:59.917Z,4.71
2023-03-26T20:54:30.539Z,4.60
2023-03-26T20:56:59.253Z,4.48
2023-03-26T20:59:29.224Z,4.38
2023-03-26T21:01:58.145Z,4.32
2023-03-26T21:04:27.953Z,4.30
2023-03-26T21:07:06.957Z,4.30
2023-03-26T21:09:41.697Z,4.30
2023-03-26T21:12:29.853Z,4.29
2023-03-26T21:14:59.592Z,4.28
2023-03-26T21:17:28.861Z,4.30
2023-03-26T21:20:02.974Z,4.29
2023-03-26T21:23:05.856Z,4.24
2023-03-26T21:25:47.451Z,4.21
2023-03-26T21:28:41.839Z,4.15
2023-03-26T21:31:20.508Z,4.09
2023-03-26T21:33:50.599Z,4.02
2023-03-26T21:36:20.718Z,3.97
2023-03-26T21:38:51.231Z,3.91
2023-03-26T21:41:37.211Z,3.83
2023-03-26T21:44:06.554Z,3.74
2023-03-26T21:46:36.488Z,3.67
2023-03-26T21:49:05.500Z,3.63
2023-03-26T21:51:35.037Z,3.61
2023-03-26T21:54:05.251Z,3.58
2023-03-26T21:56:36.719Z,3.55
2023-03-26T21:59:20.027Z,3.52
2023-03-26T22:01:58.546Z,3.48
2023-03-26T22:04:27.445Z,3.46
2023-03-26T22:07:20.188Z,3.44
2023-03-26T22:09:49.479Z,3.43
2023-03-26T22:12:19.500Z,3.44
2023-03-26T22:14:48.827Z,3.43
2023-03-26T22:17:17.795Z,3.39
2023-03-26T22:19:46.985Z,3.34
2023-03-26T22:22:15.895Z,3.29
2023-03-26T22:24:45.389Z,3.24
2023-03-26T22:27:16.436Z,3.21
2023-03-26T22:29:46.808Z,3.19
2023-03-26T22:32:15.965Z,3.16
2023-03-26T22:34:45.956Z,3.13
2023-03-26T22:37:14.791Z,3.13
2023-03-26T22:39:43.952Z,3.12
2023-03-26T22:42:12.900Z,3.13
2023-03-26T22:44:43.025Z,3.16
2023-03-26T22:47:14.162Z,3.16
2023-03-26T22:49:44.387Z,3.14
2023-03-26T22:52:13.562Z,3.11
2023-03-26T22:54:43.355Z,3.11
2023-03-26T22:57:12.482Z,3.12
2023-03-26T22:59:42.873Z,3.12
2023-03-26T23:02:13.094Z,3.12
2023-03-26T23:04:43.317Z,3.11
2023-03-26T23:07:12.931Z,3.11
2023-03-26T23:09:42.110Z,3.12
2023-03-26T23:12:12.332Z,3.11
2023-03-26T23:14:41.942Z,3.14
2023-03-26T23:17:14.966Z,3.19
2023-03-26T23:19:44.948Z,3.23
2023-03-26T23:22:14.770Z,3.25
2023-03-26T23:24:45.146Z,3.27
2023-03-26T23:27:15.405Z,3.27
2023-03-26T23:29:52.336Z,3.28
2023-03-26T23:32:25.734Z,3.28
2023-03-26T23:34:59.105Z,3.27
2023-03-26T23:37:30.036Z,3.25
2023-03-26T23:40:01.384Z,3.24
2023-03-26T23:42:30.934Z,3.24
2023-03-26T23:45:01.588Z,3.18
2023-03-26T23:47:35.450Z,3.11
2023-03-26T23:50:06.302Z,3.04
2023-03-26T23:52:38.021Z,2.98
2023-03-26T23:55:08.756Z,2.95
2023-03-26T23:57:39.182Z,2.94
